Terminal Aerodrome Forecast
Issued by NWS

Home | Current Version | Previous Version | Text Only | Print | Product List | Glossary On
Versions: 1 2 3 4 5 6 7 8 9 10 11 12 13 14 15 16
252
FTUS44 KLZK 251134
TAFHOT
TAF
KHOT 251134Z 2512/2612 VRB03KT P6SM FEW005 SCT150 BKN250
      TEMPO 2512/2513 5SM BR BKN002
     FM251400 05005KT P6SM FEW030 BKN250
     FM251800 05005KT P6SM VCTS SCT030CB OVC250 PROB30 2521/2524 4SM
      TSRA BKN040CB OVC100
     FM260100 VRB03KT P6SM OVC250=

USA.gov is the U.S. government's official web portal to all federal, state and local government web resources and services.